createdAt,value
2024-03-21T00:00:13.974Z,999.55
2024-03-21T00:01:13.947Z,999.56
2024-03-21T00:02:13.946Z,999.56
2024-03-21T00:03:13.927Z,999.56
2024-03-21T00:04:13.946Z,999.56
2024-03-21T00:05:13.913Z,999.56
2024-03-21T00:06:13.903Z,999.54
2024-03-21T00:07:13.908Z,999.53
2024-03-21T00:08:13.895Z,999.52
2024-03-21T00:09:13.893Z,999.52
2024-03-21T00:10:13.863Z,999.52
2024-03-21T00:11:13.845Z,999.51
2024-03-21T00:12:13.846Z,999.50
2024-03-21T00:13:13.840Z,999.49
2024-03-21T00:14:13.822Z,999.49
2024-03-21T00:15:13.803Z,999.47
2024-03-21T00:16:13.799Z,999.47
2024-03-21T00:17:13.783Z,999.47
2024-03-21T00:18:13.795Z,999.48
2024-03-21T00:19:13.772Z,999.47
2024-03-21T00:20:13.762Z,999.47
2024-03-21T00:21:13.746Z,999.46
2024-03-21T00:22:13.737Z,999.46
2024-03-21T00:23:13.728Z,999.46
2024-03-21T00:24:13.714Z,999.46
2024-03-21T00:25:13.701Z,999.45
2024-03-21T00:26:13.700Z,999.44
2024-03-21T00:27:13.694Z,999.41
2024-03-21T00:28:13.694Z,999.38
2024-03-21T00:29:13.662Z,999.36
2024-03-21T00:30:13.687Z,999.35
2024-03-21T00:31:13.651Z,999.34
2024-03-21T00:32:13.667Z,999.33
2024-03-21T00:33:13.620Z,999.32
2024-03-21T00:34:13.621Z,999.31
2024-03-21T00:35:13.596Z,999.30
2024-03-21T00:36:13.597Z,999.28
2024-03-21T00:37:13.632Z,999.27
2024-03-21T00:38:13.572Z,999.25
2024-03-21T00:39:13.566Z,999.21
2024-03-21T00:40:13.563Z,999.20
2024-03-21T00:41:13.548Z,999.19
2024-03-21T00:42:13.544Z,999.18
2024-03-21T00:43:13.524Z,999.18
2024-03-21T00:44:13.509Z,999.17
2024-03-21T00:45:13.504Z,999.17
2024-03-21T00:46:13.506Z,999.16
2024-03-21T00:47:13.920Z,999.15
2024-03-21T00:48:13.470Z,999.15
2024-03-21T00:49:13.460Z,999.14
2024-03-21T00:50:13.459Z,999.15
2024-03-21T00:51:13.455Z,999.16
2024-03-21T00:52:13.429Z,999.16
2024-03-21T00:53:13.424Z,999.16
2024-03-21T00:54:13.409Z,999.18
2024-03-21T00:55:13.410Z,999.18
2024-03-21T00:56:13.497Z,999.20
2024-03-21T00:57:13.386Z,999.20
2024-03-21T00:58:13.367Z,999.20
2024-03-21T00:59:13.364Z,999.21
2024-03-21T01:00:13.359Z,999.21
2024-03-21T01:01:13.350Z,999.19
2024-03-21T01:02:13.325Z,999.19
2024-03-21T01:03:13.322Z,999.18
2024-03-21T01:04:13.308Z,999.16
2024-03-21T01:05:13.323Z,999.15
2024-03-21T01:06:13.288Z,999.13
2024-03-21T01:07:13.284Z,999.12
2024-03-21T01:08:13.272Z,999.10
2024-03-21T01:09:13.273Z,999.08
2024-03-21T01:10:13.261Z,999.06
2024-03-21T01:11:13.238Z,999.04
2024-03-21T01:12:13.230Z,999.03
2024-03-21T01:13:13.219Z,999.03
2024-03-21T01:14:13.217Z,999.03
2024-03-21T01:15:13.217Z,999.02
2024-03-21T01:16:13.187Z,999.03
2024-03-21T01:17:13.176Z,999.03
2024-03-21T01:18:13.174Z,999.04
2024-03-21T01:19:13.167Z,999.04
2024-03-21T01:20:13.162Z,999.05
2024-03-21T01:21:13.137Z,999.05
2024-03-21T01:22:13.124Z,999.05
2024-03-21T01:23:13.131Z,999.04
2024-03-21T01:24:13.129Z,999.03
2024-03-21T01:25:13.102Z,999.02
2024-03-21T01:26:13.082Z,999.02
2024-03-21T01:27:13.078Z,999.03
2024-03-21T01:28:13.084Z,999.03
2024-03-21T01:29:13.057Z,999.04
2024-03-21T01:30:13.046Z,999.04
2024-03-21T01:31:13.040Z,999.05
2024-03-21T01:32:13.033Z,999.06
2024-03-21T01:33:13.035Z,999.06
2024-03-21T01:34:13.000Z,999.06
2024-03-21T01:35:12.995Z,999.05
2024-03-21T01:36:12.979Z,999.05
2024-03-21T01:37:12.977Z,999.03
2024-03-21T01:38:12.979Z,999.02
2024-03-21T01:39:12.958Z,999.01
2024-03-21T01:40:12.952Z,999.00
2024-03-21T01:41:12.948Z,999.00
2024-03-21T01:42:12.930Z,999.00
2024-03-21T01:43:12.926Z,999.00
2024-03-21T01:44:12.898Z,998.98
2024-03-21T01:45:12.902Z,998.96
2024-03-21T01:46:12.879Z,998.95
2024-03-21T01:47:12.887Z,998.94
2024-03-21T01:48:12.867Z,998.94
2024-03-21T01:49:12.853Z,998.95
2024-03-21T01:50:12.845Z,998.96
2024-03-21T01:51:12.836Z,998.97
2024-03-21T01:52:12.834Z,998.98
2024-03-21T01:53:12.826Z,998.99
2024-03-21T01:54:12.798Z,998.99
2024-03-21T01:55:16.190Z,998.97
2024-03-21T01:56:12.813Z,998.95
2024-03-21T01:57:12.802Z,998.93
2024-03-21T01:58:12.756Z,998.93
2024-03-21T01:59:12.751Z,998.92
2024-03-21T02:00:12.729Z,998.92
2024-03-21T02:01:12.751Z,998.92
2024-03-21T02:02:12.722Z,998.91
2024-03-21T02:03:12.706Z,998.90
2024-03-21T02:04:12.686Z,998.89
2024-03-21T02:05:12.687Z,998.89
2024-03-21T02:06:12.691Z,998.88
2024-03-21T02:07:12.671Z,998.87
2024-03-21T02:08:12.650Z,998.87
2024-03-21T02:09:12.653Z,998.87
2024-03-21T02:10:12.633Z,998.88
2024-03-21T02:11:12.669Z,998.87
2024-03-21T02:12:12.611Z,998.87
2024-03-21T02:13:12.602Z,998.88
2024-03-21T02:14:12.585Z,998.87
2024-03-21T02:15:12.604Z,998.88
2024-03-21T02:16:12.596Z,998.88
2024-03-21T02:17:12.563Z,998.88
2024-03-21T02:18:12.548Z,998.89
2024-03-21T02:19:12.547Z,998.89
2024-03-21T02:20:12.545Z,998.88
2024-03-21T02:21:12.522Z,998.86
2024-03-21T02:22:12.511Z,998.83
2024-03-21T02:23:12.500Z,998.82
2024-03-21T02:24:12.490Z,998.81
2024-03-21T02:25:12.541Z,998.81
2024-03-21T02:26:12.473Z,998.82
2024-03-21T02:27:12.465Z,998.83
2024-03-21T02:28:12.446Z,998.84
2024-03-21T02:29:12.443Z,998.84
2024-03-21T02:30:12.460Z,998.83
2024-03-21T02:31:12.422Z,998.83
2024-03-21T02:32:12.401Z,998.82
2024-03-21T02:33:12.397Z,998.82
2024-03-21T02:34:12.395Z,998.82
2024-03-21T02:35:12.601Z,998.83
2024-03-21T02:36:12.356Z,998.83
2024-03-21T02:37:12.361Z,998.84
2024-03-21T02:38:12.341Z,998.85
2024-03-21T02:39:12.447Z,998.86
2024-03-21T02:40:12.324Z,998.87
2024-03-21T02:41:12.320Z,998.87
2024-03-21T02:42:12.300Z,998.86
2024-03-21T02:43:12.299Z,998.87
2024-03-21T02:44:12.310Z,998.87
2024-03-21T02:45:12.276Z,998.88
2024-03-21T02:46:12.274Z,998.88
2024-03-21T02:47:12.258Z,998.88
2024-03-21T02:48:12.257Z,998.89
2024-03-21T02:49:12.254Z,998.90
2024-03-21T02:50:12.217Z,998.91
2024-03-21T02:51:12.220Z,998.92
2024-03-21T02:52:12.215Z,998.92
2024-03-21T02:53:12.211Z,998.92
2024-03-21T02:54:12.178Z,998.92
2024-03-21T02:55:12.171Z,998.91
2024-03-21T02:56:12.156Z,998.90
2024-03-21T02:57:12.148Z,998.88
2024-03-21T02:58:12.167Z,998.88
2024-03-21T02:59:12.133Z,998.86
2024-03-21T03:00:12.114Z,998.85
2024-03-21T03:01:12.109Z,998.85
2024-03-21T03:02:12.149Z,998.85
2024-03-21T03:03:12.122Z,998.85
2024-03-21T03:04:12.075Z,998.87
2024-03-21T03:05:12.069Z,998.89
2024-03-21T03:06:12.052Z,998.90
2024-03-21T03:07:12.078Z,998.90
2024-03-21T03:08:12.033Z,998.90
2024-03-21T03:09:12.032Z,998.89
2024-03-21T03:10:12.021Z,998.87
2024-03-21T03:11:12.029Z,998.85
2024-03-21T03:12:12.018Z,998.83
2024-03-21T03:13:11.994Z,998.82
2024-03-21T03:14:11.999Z,998.83
2024-03-21T03:15:11.973Z,998.82
2024-03-21T03:16:11.979Z,998.81
2024-03-21T03:17:12.066Z,998.80
2024-03-21T03:18:11.931Z,998.80
2024-03-21T03:19:11.927Z,998.81
2024-03-21T03:20:11.929Z,998.82
2024-03-21T03:21:11.963Z,998.83
2024-03-21T03:22:11.918Z,998.83
2024-03-21T03:23:11.887Z,998.83
2024-03-21T03:24:11.868Z,998.83
2024-03-21T03:25:11.882Z,998.82
2024-03-21T03:26:11.861Z,998.80
2024-03-21T03:27:11.847Z,998.79
2024-03-21T03:28:11.833Z,998.79
2024-03-21T03:29:11.825Z,998.79
2024-03-21T03:30:11.808Z,998.79
2024-03-21T03:31:11.821Z,998.79
2024-03-21T03:32:11.789Z,998.79
2024-03-21T03:33:13.080Z,998.79
2024-03-21T03:34:11.764Z,998.79
2024-03-21T03:35:11.788Z,998.78
2024-03-21T03:36:11.758Z,998.76
2024-03-21T03:37:11.744Z,998.75
2024-03-21T03:38:11.737Z,998.74
2024-03-21T03:39:11.725Z,998.74
2024-03-21T03:40:11.725Z,998.74
2024-03-21T03:41:11.711Z,998.73
2024-03-21T03:42:11.688Z,998.72
2024-03-21T03:43:11.684Z,998.71
2024-03-21T03:44:14.636Z,998.70
2024-03-21T03:45:11.681Z,998.69
2024-03-21T03:46:11.650Z,998.68
2024-03-21T03:47:11.648Z,998.67
2024-03-21T03:48:11.629Z,998.65
2024-03-21T03:49:11.623Z,998.63
2024-03-21T03:50:11.624Z,998.62
2024-03-21T03:51:11.604Z,998.61
2024-03-21T03:52:11.583Z,998.61
2024-03-21T03:53:11.585Z,998.63
2024-03-21T03:54:11.580Z,998.65
2024-03-21T03:55:11.618Z,998.67
2024-03-21T03:56:11.543Z,998.67
2024-03-21T03:57:11.539Z,998.67
2024-03-21T03:58:11.520Z,998.66
2024-03-21T03:59:11.538Z,998.65
2024-03-21T04:00:11.505Z,998.65
2024-03-21T04:01:11.498Z,998.65
2024-03-21T04:02:11.482Z,998.66
2024-03-21T04:03:11.478Z,998.67
2024-03-21T04:04:11.472Z,998.69
2024-03-21T04:05:11.453Z,998.69
2024-03-21T04:06:11.439Z,998.67
2024-03-21T04:07:11.437Z,998.66
2024-03-21T04:08:11.438Z,998.65
2024-03-21T04:09:11.438Z,998.63
2024-03-21T04:10:11.412Z,998.61
2024-03-21T04:11:11.397Z,998.59
2024-03-21T04:12:11.383Z,998.58
2024-03-21T04:13:11.391Z,998.58
2024-03-21T04:14:11.363Z,998.58
2024-03-21T04:15:11.356Z,998.59
2024-03-21T04:16:11.340Z,998.60
2024-03-21T04:17:11.350Z,998.62
2024-03-21T04:18:11.331Z,998.61
2024-03-21T04:19:11.322Z,998.61
2024-03-21T04:20:11.301Z,998.60
2024-03-21T04:21:11.296Z,998.60
2024-03-21T04:22:11.306Z,998.59
2024-03-21T04:23:11.286Z,998.60
2024-03-21T04:24:11.258Z,998.60
2024-03-21T04:25:11.258Z,998.60
2024-03-21T04:26:11.234Z,998.59
2024-03-21T04:27:11.250Z,998.59
2024-03-21T04:28:11.214Z,998.59
2024-03-21T04:29:11.212Z,998.60
2024-03-21T04:30:11.194Z,998.61
2024-03-21T04:31:11.192Z,998.61
2024-03-21T04:32:11.199Z,998.62
2024-03-21T04:33:11.173Z,998.63
2024-03-21T04:34:11.155Z,998.64
2024-03-21T04:35:11.155Z,998.64
2024-03-21T04:36:11.161Z,998.64
2024-03-21T04:37:11.150Z,998.64
2024-03-21T04:38:11.120Z,998.64
2024-03-21T04:39:11.114Z,998.65
2024-03-21T04:40:11.108Z,998.65
2024-03-21T04:41:11.107Z,998.68
2024-03-21T04:42:11.080Z,998.71
2024-03-21T04:43:11.073Z,998.72
2024-03-21T04:44:11.056Z,998.71
2024-03-21T04:45:11.071Z,998.71
2024-03-21T04:46:11.055Z,998.71
2024-03-21T04:47:11.032Z,998.72
2024-03-21T04:48:11.018Z,998.74
2024-03-21T04:49:11.011Z,998.72
2024-03-21T04:50:11.006Z,998.72
2024-03-21T04:51:10.998Z,998.72
2024-03-21T04:52:10.981Z,998.71
2024-03-21T04:53:10.963Z,998.70
2024-03-21T04:54:10.907Z,998.70
2024-03-21T04:55:10.921Z,998.70
2024-03-21T04:56:10.897Z,998.68
2024-03-21T04:57:10.892Z,998.67
2024-03-21T04:58:10.875Z,998.68
2024-03-21T04:59:10.851Z,998.70
2024-03-21T05:00:10.892Z,998.71
2024-03-21T05:01:10.831Z,998.71
2024-03-21T05:02:10.827Z,998.75
2024-03-21T05:03:10.811Z,998.77
2024-03-21T05:04:10.808Z,998.75
2024-03-21T05:05:10.799Z,998.77
2024-03-21T05:06:10.782Z,998.78
2024-03-21T05:07:10.771Z,998.78
2024-03-21T05:08:10.772Z,998.80
2024-03-21T05:09:10.764Z,998.79
2024-03-21T05:10:12.828Z,998.79
2024-03-21T05:11:10.736Z,998.80
2024-03-21T05:12:10.733Z,998.81
2024-03-21T05:13:10.719Z,998.83
2024-03-21T05:14:10.725Z,998.83
2024-03-21T05:15:10.691Z,998.84
2024-03-21T05:16:10.722Z,998.84
2024-03-21T05:17:10.701Z,998.84
2024-03-21T05:18:10.665Z,998.84
2024-03-21T05:19:10.666Z,998.84
2024-03-21T05:20:10.664Z,998.85
2024-03-21T05:21:10.627Z,998.87
2024-03-21T05:22:10.623Z,998.87
2024-03-21T05:23:10.619Z,998.88
2024-03-21T05:24:11.229Z,998.91
2024-03-21T05:25:10.586Z,998.93
2024-03-21T05:26:10.588Z,998.93
2024-03-21T05:27:10.567Z,998.96
2024-03-21T05:28:10.575Z,998.96
2024-03-21T05:29:10.562Z,998.98
2024-03-21T05:30:10.542Z,999.00
2024-03-21T05:31:10.532Z,998.98
2024-03-21T05:32:10.525Z,998.98
2024-03-21T05:33:10.522Z,998.99
2024-03-21T05:34:10.502Z,998.99
2024-03-21T05:35:10.485Z,999.00
2024-03-21T05:36:10.483Z,999.02
2024-03-21T05:37:10.465Z,999.04
2024-03-21T05:38:11.143Z,999.09
2024-03-21T05:39:10.450Z,999.10
2024-03-21T05:40:10.447Z,999.10
2024-03-21T05:41:10.436Z,999.11
2024-03-21T05:42:10.432Z,999.15
2024-03-21T05:43:10.435Z,999.22
2024-03-21T05:44:10.404Z,999.30
2024-03-21T05:45:10.383Z,999.32
2024-03-21T05:46:10.386Z,999.35
2024-03-21T05:47:10.402Z,999.37
2024-03-21T05:48:10.363Z,999.33
2024-03-21T05:49:10.340Z,999.33
2024-03-21T05:50:10.336Z,999.33
2024-03-21T05:51:10.319Z,999.30
2024-03-21T05:52:10.321Z,999.27
2024-03-21T05:53:10.298Z,999.27
2024-03-21T05:54:10.298Z,999.28
2024-03-21T05:55:10.279Z,999.28
2024-03-21T05:56:10.293Z,999.27
2024-03-21T05:57:10.297Z,999.27
2024-03-21T05:58:10.257Z,999.25
2024-03-21T05:59:10.239Z,999.25
2024-03-21T06:00:10.235Z,999.28
2024-03-21T06:01:10.230Z,999.29
2024-03-21T06:02:10.227Z,999.31
2024-03-21T06:03:10.202Z,999.32
2024-03-21T06:04:10.197Z,999.32
2024-03-21T06:05:10.178Z,999.32
2024-03-21T06:06:10.191Z,999.32
2024-03-21T06:07:10.174Z,999.33
2024-03-21T06:08:10.157Z,999.30
2024-03-21T06:09:10.134Z,999.27
2024-03-21T06:10:10.141Z,999.30
2024-03-21T06:11:10.139Z,999.25
2024-03-21T06:12:10.118Z,999.25
2024-03-21T06:13:10.100Z,999.30
2024-03-21T06:14:10.096Z,999.31
2024-03-21T06:15:10.101Z,999.40
2024-03-21T06:16:10.108Z,999.39
2024-03-21T06:17:10.056Z,999.36
2024-03-21T06:18:10.054Z,999.36
2024-03-21T06:19:10.046Z,999.38
2024-03-21T06:20:10.045Z,999.39
2024-03-21T06:21:10.014Z,999.37
2024-03-21T06:22:10.010Z,999.36
2024-03-21T06:23:10.022Z,999.36
2024-03-21T06:24:09.994Z,999.36
2024-03-21T06:25:09.986Z,999.33
2024-03-21T06:26:09.972Z,999.32
2024-03-21T06:27:09.950Z,999.28
2024-03-21T06:28:09.955Z,999.27
2024-03-21T06:29:09.981Z,999.31
2024-03-21T06:30:09.950Z,999.31
2024-03-21T06:31:09.918Z,999.31
2024-03-21T06:32:09.909Z,999.35
2024-03-21T06:33:09.889Z,999.36
2024-03-21T06:34:09.922Z,999.37
2024-03-21T06:35:09.915Z,999.35
2024-03-21T06:36:09.943Z,999.38
2024-03-21T06:37:09.891Z,999.42
2024-03-21T06:38:09.843Z,999.41
2024-03-21T06:39:09.865Z,999.40
2024-03-21T06:40:09.870Z,999.40
2024-03-21T06:41:09.831Z,999.40
2024-03-21T06:42:09.839Z,999.42
2024-03-21T06:43:09.913Z,999.45
2024-03-21T06:44:09.978Z,999.40
2024-03-21T06:45:09.871Z,999.40
2024-03-21T06:46:09.946Z,999.43
2024-03-21T06:47:09.831Z,999.42
2024-03-21T06:48:09.756Z,999.44
2024-03-21T06:49:09.747Z,999.47
2024-03-21T06:50:09.737Z,999.48
2024-03-21T06:51:09.720Z,999.50
2024-03-21T06:52:09.716Z,999.49
2024-03-21T06:53:09.722Z,999.49
2024-03-21T06:54:09.687Z,999.53
2024-03-21T06:55:09.666Z,999.52
2024-03-21T06:56:09.673Z,999.50
2024-03-21T06:57:09.651Z,999.55
2024-03-21T06:58:09.661Z,999.54
2024-03-21T06:59:09.636Z,999.49
2024-03-21T07:00:09.635Z,999.59
2024-03-21T07:01:09.607Z,999.57
2024-03-21T07:02:09.637Z,999.49
2024-03-21T07:03:09.604Z,999.52
2024-03-21T07:04:09.581Z,999.53
2024-03-21T07:05:09.564Z,999.52
2024-03-21T07:06:09.571Z,999.55
2024-03-21T07:07:09.572Z,999.63
2024-03-21T07:08:09.545Z,999.70
2024-03-21T07:09:09.527Z,999.66
2024-03-21T07:10:09.518Z,999.64
2024-03-21T07:11:09.502Z,999.68
2024-03-21T07:12:09.515Z,999.71
2024-03-21T07:13:09.517Z,999.70
2024-03-21T07:14:09.504Z,999.68
2024-03-21T07:15:09.463Z,999.71
2024-03-21T07:16:09.476Z,999.73
2024-03-21T07:17:09.469Z,999.76
2024-03-21T07:18:09.461Z,999.81
2024-03-21T07:19:09.455Z,999.82
2024-03-21T07:20:09.482Z,999.81
2024-03-21T07:21:09.414Z,999.82
2024-03-21T07:22:09.396Z,999.80
2024-03-21T07:23:09.395Z,999.81
2024-03-21T07:24:09.379Z,999.81
2024-03-21T07:25:09.371Z,999.84
2024-03-21T07:26:09.411Z,999.86
2024-03-21T07:27:09.343Z,999.93
2024-03-21T07:28:09.338Z,999.89
2024-03-21T07:29:09.322Z,999.78
2024-03-21T07:30:09.335Z,999.84
2024-03-21T07:31:09.323Z,999.90
2024-03-21T07:32:09.296Z,999.85
2024-03-21T07:33:09.297Z,999.85
2024-03-21T07:34:09.300Z,999.89
2024-03-21T07:35:09.267Z,999.84
2024-03-21T07:36:10.696Z,999.85
2024-03-21T07:37:09.565Z,999.86
2024-03-21T07:38:09.425Z,999.85
2024-03-21T07:39:09.329Z,999.85
2024-03-21T07:40:09.227Z,999.86
2024-03-21T07:41:09.290Z,999.84
2024-03-21T07:42:09.189Z,999.83
2024-03-21T07:43:09.172Z,999.85
2024-03-21T07:44:09.180Z,999.88
2024-03-21T07:45:09.171Z,999.93
2024-03-21T07:46:09.154Z,999.91
2024-03-21T07:47:09.130Z,999.89
2024-03-21T07:48:09.131Z,999.89
2024-03-21T07:49:09.163Z,999.94
2024-03-21T07:50:09.127Z,999.96
2024-03-21T07:51:09.116Z,999.96
2024-03-21T07:52:09.097Z,999.96
2024-03-21T07:53:09.064Z,999.99
2024-03-21T07:54:09.089Z,1000.01
2024-03-21T07:55:09.054Z,1000.04
2024-03-21T07:56:09.056Z,1000.03
2024-03-21T07:57:09.024Z,1000.05
2024-03-21T07:58:09.019Z,1000.07
2024-03-21T07:59:09.036Z,1000.11
2024-03-21T08:00:09.003Z,1000.15
2024-03-21T08:01:10.892Z,1000.17
2024-03-21T08:02:08.981Z,1000.19
2024-03-21T08:03:08.990Z,1000.24
2024-03-21T08:04:09.005Z,1000.23
2024-03-21T08:05:08.936Z,1000.25
2024-03-21T08:06:08.942Z,1000.29
2024-03-21T08:07:08.931Z,1000.31
2024-03-21T08:08:08.927Z,1000.32
2024-03-21T08:09:08.902Z,1000.35
2024-03-21T08:10:08.947Z,1000.36
2024-03-21T08:11:08.934Z,1000.37
2024-03-21T08:12:08.886Z,1000.39
2024-03-21T08:13:08.886Z,1000.38
2024-03-21T08:14:08.859Z,1000.39
2024-03-21T08:15:08.840Z,1000.40
2024-03-21T08:16:08.836Z,1000.40
2024-03-21T08:17:08.837Z,1000.43
2024-03-21T08:18:08.886Z,1000.42
2024-03-21T08:19:08.811Z,1000.44
2024-03-21T08:20:08.799Z,1000.42
2024-03-21T08:21:09.778Z,1000.40
2024-03-21T08:22:08.831Z,1000.39
2024-03-21T08:23:08.800Z,1000.41
2024-03-21T08:24:08.756Z,1000.41
2024-03-21T08:25:08.738Z,1000.41
2024-03-21T08:26:08.729Z,1000.42
2024-03-21T08:27:08.764Z,1000.41
2024-03-21T08:28:08.714Z,1000.42
2024-03-21T08:29:08.700Z,1000.40
2024-03-21T08:30:08.686Z,1000.41
2024-03-21T08:31:08.677Z,1000.44
2024-03-21T08:32:08.701Z,1000.46
2024-03-21T08:33:08.655Z,1000.44
2024-03-21T08:34:08.655Z,1000.43
2024-03-21T08:35:08.635Z,1000.46
2024-03-21T08:36:08.672Z,1000.45
2024-03-21T08:37:08.632Z,1000.48
2024-03-21T08:38:08.613Z,1000.48
2024-03-21T08:39:08.596Z,1000.49
2024-03-21T08:40:08.591Z,1000.47
2024-03-21T08:41:08.628Z,1000.49
2024-03-21T08:42:08.571Z,1000.50
2024-03-21T08:43:08.550Z,1000.52
2024-03-21T08:44:08.586Z,1000.51
2024-03-21T08:45:08.537Z,1000.46
2024-03-21T08:46:08.586Z,1000.41
2024-03-21T08:47:08.520Z,1000.42
2024-03-21T08:48:08.524Z,1000.44
2024-03-21T08:49:08.490Z,1000.46
2024-03-21T08:50:08.510Z,1000.46
2024-03-21T08:51:08.564Z,1000.47
2024-03-21T08:52:08.470Z,1000.50
2024-03-21T08:53:08.457Z,1000.50
2024-03-21T08:54:08.443Z,1000.52
2024-03-21T08:55:08.503Z,1000.52
2024-03-21T08:56:08.448Z,1000.56
2024-03-21T08:57:08.409Z,1000.56
2024-03-21T08:58:08.418Z,1000.56
2024-03-21T08:59:08.424Z,1000.60
2024-03-21T09:00:08.444Z,1000.62
2024-03-21T09:01:08.372Z,1000.64
2024-03-21T09:02:08.371Z,1000.68
2024-03-21T09:03:08.355Z,1000.65
2024-03-21T09:04:08.378Z,1000.67
2024-03-21T09:05:08.374Z,1000.65
2024-03-21T09:06:08.316Z,1000.65
2024-03-21T09:07:08.307Z,1000.66
2024-03-21T09:08:08.326Z,1000.70
2024-03-21T09:09:08.304Z,1000.70
2024-03-21T09:10:08.346Z,1000.71
2024-03-21T09:11:08.343Z,1000.69
2024-03-21T09:12:08.259Z,1000.73
2024-03-21T09:13:08.248Z,1000.79
2024-03-21T09:14:08.291Z,1000.73
2024-03-21T09:15:08.253Z,1000.74
2024-03-21T09:16:08.279Z,1000.77
2024-03-21T09:17:08.328Z,1000.75
2024-03-21T09:18:08.189Z,1000.74
2024-03-21T09:19:08.243Z,1000.77
2024-03-21T09:20:08.240Z,1000.79
2024-03-21T09:21:08.173Z,1000.82
2024-03-21T09:22:08.155Z,1000.83
2024-03-21T09:23:08.190Z,1000.87
2024-03-21T09:24:08.166Z,1000.89
2024-03-21T09:25:08.142Z,1000.89
2024-03-21T09:26:08.178Z,1000.91
2024-03-21T09:27:12.357Z,1000.88
2024-03-21T09:28:08.165Z,1000.91
2024-03-21T09:29:08.170Z,1000.95
2024-03-21T09:30:08.105Z,1000.99
2024-03-21T09:31:08.071Z,1000.99
2024-03-21T09:32:08.071Z,1000.97
2024-03-21T09:33:08.097Z,1000.98
2024-03-21T09:34:08.038Z,1000.99
2024-03-21T09:35:08.079Z,1000.96
2024-03-21T09:36:08.028Z,1001.00
2024-03-21T09:37:08.003Z,1001.01
2024-03-21T09:38:08.052Z,1001.01
2024-03-21T09:39:07.992Z,1000.99
2024-03-21T09:40:07.975Z,1000.98
2024-03-21T09:41:07.982Z,1001.02
2024-03-21T09:42:08.051Z,1001.02
2024-03-21T09:43:08.015Z,1001.03
2024-03-21T09:44:07.996Z,1001.02
2024-03-21T09:45:07.995Z,1001.06
2024-03-21T09:46:07.922Z,1001.08
2024-03-21T09:47:08.001Z,1001.11
2024-03-21T09:48:07.911Z,1001.14
2024-03-21T09:49:07.895Z,1001.15
2024-03-21T09:50:08.001Z,1001.15
2024-03-21T09:51:07.891Z,1001.14
2024-03-21T09:52:07.888Z,1001.16
2024-03-21T09:53:07.907Z,1001.15
2024-03-21T09:54:07.844Z,1001.17
2024-03-21T09:55:07.836Z,1001.17
2024-03-21T09:56:07.842Z,1001.14
2024-03-21T09:57:07.840Z,1001.15
2024-03-21T09:58:07.821Z,1001.15
2024-03-21T09:59:07.823Z,1001.14
2024-03-21T10:00:07.892Z,1001.16
2024-03-21T10:01:07.800Z,1001.19
2024-03-21T10:02:07.788Z,1001.19
2024-03-21T10:03:07.772Z,1001.20
2024-03-21T10:04:07.754Z,1001.23
2024-03-21T10:05:07.779Z,1001.27
2024-03-21T10:06:07.811Z,1001.23
2024-03-21T10:07:07.735Z,1001.24
2024-03-21T10:08:07.756Z,1001.29
2024-03-21T10:09:07.709Z,1001.32
2024-03-21T10:10:07.746Z,1001.31
2024-03-21T10:11:07.747Z,1001.34
2024-03-21T10:12:07.686Z,1001.36
2024-03-21T10:13:07.677Z,1001.28
2024-03-21T10:14:07.694Z,1001.29
2024-03-21T10:15:07.676Z,1001.33
2024-03-21T10:16:07.641Z,1001.39
2024-03-21T10:17:07.647Z,1001.41
2024-03-21T10:18:07.623Z,1001.43
2024-03-21T10:19:07.686Z,1001.46
2024-03-21T10:20:07.630Z,1001.53
2024-03-21T10:21:07.596Z,1001.54
2024-03-21T10:22:07.606Z,1001.52
2024-03-21T10:23:07.617Z,1001.53
2024-03-21T10:24:07.567Z,1001.51
2024-03-21T10:25:07.551Z,1001.54
2024-03-21T10:26:07.567Z,1001.60
2024-03-21T10:27:07.523Z,1001.61
2024-03-21T10:28:07.509Z,1001.58
2024-03-21T10:29:07.609Z,1001.60
2024-03-21T10:30:07.493Z,1001.59
2024-03-21T10:31:07.483Z,1001.66
2024-03-21T10:32:07.505Z,1001.69
2024-03-21T10:33:07.471Z,1001.74
2024-03-21T10:34:07.461Z,1001.72
2024-03-21T10:35:14.912Z,1001.73
2024-03-21T10:36:07.429Z,1001.70
2024-03-21T10:37:07.425Z,1001.72
2024-03-21T10:38:07.409Z,1001.74
2024-03-21T10:39:07.419Z,1001.72
2024-03-21T10:40:07.387Z,1001.69
2024-03-21T10:41:07.389Z,1001.69
2024-03-21T10:42:07.372Z,1001.71
2024-03-21T10:43:07.376Z,1001.75
2024-03-21T10:44:07.409Z,1001.75
2024-03-21T10:45:07.347Z,1001.74
2024-03-21T10:46:07.423Z,1001.84
2024-03-21T10:47:07.337Z,1001.77
2024-03-21T10:48:07.319Z,1001.80
2024-03-21T10:49:07.326Z,1001.79
2024-03-21T10:50:07.303Z,1001.81
2024-03-21T10:51:07.295Z,1001.86
2024-03-21T10:52:07.280Z,1001.88
2024-03-21T10:53:07.295Z,1001.88
2024-03-21T10:54:07.274Z,1001.86
2024-03-21T10:55:07.271Z,1001.96
2024-03-21T10:56:07.292Z,1001.97
2024-03-21T10:57:07.243Z,1001.97
2024-03-21T10:58:07.244Z,1002.00
2024-03-21T10:59:07.250Z,1002.10
2024-03-21T11:00:07.224Z,1002.06
2024-03-21T11:01:07.207Z,1002.08
2024-03-21T11:02:07.294Z,1002.14
2024-03-21T11:03:07.249Z,1002.06
2024-03-21T11:04:07.175Z,1002.13
2024-03-21T11:05:07.263Z,1002.10
2024-03-21T11:06:07.228Z,1002.17
2024-03-21T11:07:07.167Z,1002.18
2024-03-21T11:08:07.227Z,1002.22
2024-03-21T11:09:07.159Z,1002.21
2024-03-21T11:10:07.133Z,1002.21
2024-03-21T11:11:07.152Z,1002.21
2024-03-21T11:12:07.115Z,1002.33
2024-03-21T11:13:07.099Z,1002.28
2024-03-21T11:14:07.094Z,1002.26
2024-03-21T11:15:07.082Z,1002.24
2024-03-21T11:16:07.085Z,1002.26
2024-03-21T11:17:07.120Z,1002.23
2024-03-21T11:18:07.077Z,1002.21
2024-03-21T11:19:07.062Z,1002.25
2024-03-21T11:20:07.077Z,1002.26
2024-03-21T11:21:07.044Z,1002.26
2024-03-21T11:22:07.021Z,1002.26
2024-03-21T11:23:07.037Z,1002.28
2024-03-21T11:24:07.008Z,1002.37
2024-03-21T11:25:09.074Z,1002.34
2024-03-21T11:26:07.046Z,1002.31
2024-03-21T11:27:06.983Z,1002.27
2024-03-21T11:28:06.952Z,1002.30
2024-03-21T11:29:14.911Z,1002.26
2024-03-21T11:30:06.934Z,1002.26
2024-03-21T11:31:06.934Z,1002.26
2024-03-21T11:32:06.917Z,1002.29
2024-03-21T11:33:06.901Z,1002.29
2024-03-21T11:34:06.885Z,1002.28
2024-03-21T11:35:06.887Z,1002.42
2024-03-21T11:36:06.873Z,1002.33
2024-03-21T11:37:06.871Z,1002.29
2024-03-21T11:38:06.843Z,1002.33
2024-03-21T11:39:06.846Z,1002.31
2024-03-21T11:40:06.822Z,1002.33
2024-03-21T11:41:06.833Z,1002.32
2024-03-21T11:42:06.805Z,1002.37
2024-03-21T11:43:06.806Z,1002.35
2024-03-21T11:44:06.792Z,1002.41
2024-03-21T11:45:06.787Z,1002.41
2024-03-21T11:46:06.771Z,1002.47
2024-03-21T11:47:06.763Z,1002.44
2024-03-21T11:48:06.738Z,1002.49
2024-03-21T11:49:06.738Z,1002.41
2024-03-21T11:50:06.802Z,1002.48
2024-03-21T11:51:06.712Z,1002.56
2024-03-21T11:52:06.697Z,1002.55
2024-03-21T11:53:06.700Z,1002.57
2024-03-21T11:54:06.682Z,1002.56
2024-03-21T11:55:06.690Z,1002.59
2024-03-21T11:56:06.676Z,1002.59
2024-03-21T11:57:06.641Z,1002.62
2024-03-21T11:58:06.628Z,1002.70
2024-03-21T11:59:06.653Z,1002.76
2024-03-21T12:00:06.614Z,1002.68
2024-03-21T12:01:06.606Z,1002.76
2024-03-21T12:02:06.589Z,1002.72
2024-03-21T12:03:06.580Z,1002.76
2024-03-21T12:04:06.579Z,1002.78
2024-03-21T12:05:06.581Z,1002.82
2024-03-21T12:06:06.545Z,1002.76
2024-03-21T12:07:06.538Z,1002.87
2024-03-21T12:08:06.541Z,1002.87
2024-03-21T12:09:06.572Z,1002.88
2024-03-21T12:10:06.493Z,1002.86
2024-03-21T12:11:06.503Z,1002.86
2024-03-21T12:12:06.483Z,1002.89
2024-03-21T12:13:06.487Z,1002.91
2024-03-21T12:14:06.497Z,1002.97
2024-03-21T12:15:06.491Z,1002.94
2024-03-21T12:16:06.438Z,1002.98
2024-03-21T12:17:06.506Z,1002.96
2024-03-21T12:18:06.433Z,1003.02
2024-03-21T12:19:06.407Z,1002.98
2024-03-21T12:20:06.439Z,1003.07